sensor_id;sensor_type;location;lat;lon;timestamp;P1;durP1;ratioP1;P2;durP2;ratioP2
79363;SDS011;68832;53.112;17.980;2023-04-28T00:01:40;29.90;;;14.20;;
79363;SDS011;68832;53.112;17.980;2023-04-28T00:04:07;30.70;;;16.00;;
79363;SDS011;68832;53.112;17.980;2023-04-28T00:06:34;33.50;;;16.10;;
79363;SDS011;68832;53.112;17.980;2023-04-28T00:09:01;35.50;;;18.50;;
79363;SDS011;68832;53.112;17.980;2023-04-28T00:11:29;39.00;;;18.70;;
79363;SDS011;68832;53.112;17.980;2023-04-28T00:13:55;33.50;;;17.10;;
79363;SDS011;68832;53.112;17.980;2023-04-28T00:16:22;32.70;;;16.50;;
79363;SDS011;68832;53.112;17.980;2023-04-28T00:18:49;27.30;;;15.40;;
79363;SDS011;68832;53.112;17.980;2023-04-28T00:21:17;29.80;;;16.40;;
79363;SDS011;68832;53.112;17.980;2023-04-28T00:23:44;28.40;;;13.80;;
79363;SDS011;68832;53.112;17.980;2023-04-28T00:26:10;27.60;;;11.20;;
79363;SDS011;68832;53.112;17.980;2023-04-28T00:28:37;27.80;;;12.50;;
79363;SDS011;68832;53.112;17.980;2023-04-28T00:31:10;29.00;;;12.70;;
79363;SDS011;68832;53.112;17.980;2023-04-28T00:33:39;39.80;;;14.40;;
79363;SDS011;68832;53.112;17.980;2023-04-28T00:36:06;30.40;;;15.80;;
79363;SDS011;68832;53.112;17.980;2023-04-28T00:38:34;27.70;;;15.30;;
79363;SDS011;68832;53.112;17.980;2023-04-28T00:41:01;25.40;;;12.40;;
79363;SDS011;68832;53.112;17.980;2023-04-28T00:43:28;25.70;;;13.30;;
79363;SDS011;68832;53.112;17.980;2023-04-28T00:45:55;28.50;;;14.20;;
79363;SDS011;68832;53.112;17.980;2023-04-28T00:48:22;26.80;;;13.40;;
79363;SDS011;68832;53.112;17.980;2023-04-28T00:50:49;21.40;;;12.60;;
79363;SDS011;68832;53.112;17.980;2023-04-28T00:53:17;28.70;;;12.90;;
79363;SDS011;68832;53.112;17.980;2023-04-28T00:55:44;23.00;;;12.60;;
79363;SDS011;68832;53.112;17.980;2023-04-28T00:58:12;25.00;;;12.00;;
79363;SDS011;68832;53.112;17.980;2023-04-28T01:00:39;20.40;;;11.00;;
79363;SDS011;68832;53.112;17.980;2023-04-28T01:03:06;27.50;;;13.00;;
79363;SDS011;68832;53.112;17.980;2023-04-28T01:05:33;19.90;;;12.30;;
79363;SDS011;68832;53.112;17.980;2023-04-28T01:08:00;26.10;;;12.90;;
79363;SDS011;68832;53.112;17.980;2023-04-28T01:10:28;24.30;;;12.60;;
79363;SDS011;68832;53.112;17.980;2023-04-28T01:12:55;23.40;;;13.60;;
79363;SDS011;68832;53.112;17.980;2023-04-28T01:15:22;19.20;;;12.30;;
79363;SDS011;68832;53.112;17.980;2023-04-28T01:17:53;22.60;;;11.40;;
79363;SDS011;68832;53.112;17.980;2023-04-28T01:20:20;31.30;;;15.30;;
79363;SDS011;68832;53.112;17.980;2023-04-28T01:22:47;39.10;;;18.30;;
79363;SDS011;68832;53.112;17.980;2023-04-28T01:25:14;44.70;;;18.20;;
79363;SDS011;68832;53.112;17.980;2023-04-28T01:27:41;41.80;;;18.00;;
79363;SDS011;68832;53.112;17.980;2023-04-28T01:30:08;35.60;;;16.30;;
79363;SDS011;68832;53.112;17.980;2023-04-28T01:32:35;29.90;;;15.60;;
79363;SDS011;68832;53.112;17.980;2023-04-28T01:35:02;33.80;;;16.80;;
79363;SDS011;68832;53.112;17.980;2023-04-28T01:37:29;34.10;;;16.40;;
79363;SDS011;68832;53.112;17.980;2023-04-28T01:39:56;32.10;;;14.10;;
79363;SDS011;68832;53.112;17.980;2023-04-28T01:42:24;22.70;;;12.00;;
79363;SDS011;68832;53.112;17.980;2023-04-28T01:44:51;27.00;;;13.80;;
79363;SDS011;68832;53.112;17.980;2023-04-28T01:47:18;25.70;;;14.60;;
79363;SDS011;68832;53.112;17.980;2023-04-28T01:49:46;26.00;;;12.50;;
79363;SDS011;68832;53.112;17.980;2023-04-28T01:54:42;26.20;;;13.30;;
79363;SDS011;68832;53.112;17.980;2023-04-28T01:57:09;27.40;;;12.30;;
79363;SDS011;68832;53.112;17.980;2023-04-28T01:59:36;23.70;;;12.20;;
79363;SDS011;68832;53.112;17.980;2023-04-28T02:02:05;27.80;;;13.10;;
79363;SDS011;68832;53.112;17.980;2023-04-28T02:04:32;26.00;;;12.60;;
79363;SDS011;68832;53.112;17.980;2023-04-28T02:06:59;23.90;;;12.80;;
79363;SDS011;68832;53.112;17.980;2023-04-28T02:09:26;23.30;;;13.30;;
79363;SDS011;68832;53.112;17.980;2023-04-28T02:11:53;22.30;;;12.30;;
79363;SDS011;68832;53.112;17.980;2023-04-28T02:14:20;27.00;;;13.40;;
79363;SDS011;68832;53.112;17.980;2023-04-28T02:16:47;27.00;;;14.00;;
79363;SDS011;68832;53.112;17.980;2023-04-28T02:19:14;28.60;;;15.70;;
79363;SDS011;68832;53.112;17.980;2023-04-28T02:21:41;34.50;;;15.20;;
79363;SDS011;68832;53.112;17.980;2023-04-28T02:24:08;31.30;;;14.20;;
79363;SDS011;68832;53.112;17.980;2023-04-28T02:26:35;32.00;;;13.20;;
79363;SDS011;68832;53.112;17.980;2023-04-28T02:29:02;34.60;;;15.70;;
79363;SDS011;68832;53.112;17.980;2023-04-28T02:31:32;26.40;;;12.60;;
79363;SDS011;68832;53.112;17.980;2023-04-28T02:33:59;38.60;;;14.50;;
79363;SDS011;68832;53.112;17.980;2023-04-28T02:36:26;48.30;;;23.00;;
79363;SDS011;68832;53.112;17.980;2023-04-28T02:38:53;38.00;;;18.40;;
79363;SDS011;68832;53.112;17.980;2023-04-28T02:41:20;25.80;;;14.70;;
79363;SDS011;68832;53.112;17.980;2023-04-28T02:43:46;21.00;;;12.50;;
79363;SDS011;68832;53.112;17.980;2023-04-28T02:46:13;23.00;;;12.40;;
79363;SDS011;68832;53.112;17.980;2023-04-28T02:48:40;25.90;;;14.60;;
79363;SDS011;68832;53.112;17.980;2023-04-28T02:51:07;28.00;;;14.20;;
79363;SDS011;68832;53.112;17.980;2023-04-28T02:53:34;27.10;;;12.60;;
79363;SDS011;68832;53.112;17.980;2023-04-28T02:56:01;22.40;;;13.40;;
79363;SDS011;68832;53.112;17.980;2023-04-28T02:58:30;22.20;;;13.10;;
79363;SDS011;68832;53.112;17.980;2023-04-28T03:00:56;24.60;;;13.70;;
79363;SDS011;68832;53.112;17.980;2023-04-28T03:03:23;30.30;;;14.50;;
79363;SDS011;68832;53.112;17.980;2023-04-28T03:05:50;27.40;;;13.50;;
79363;SDS011;68832;53.112;17.980;2023-04-28T03:08:17;22.80;;;13.10;;
79363;SDS011;68832;53.112;17.980;2023-04-28T03:10:46;24.90;;;13.30;;
79363;SDS011;68832;53.112;17.980;2023-04-28T03:13:13;25.90;;;13.90;;
79363;SDS011;68832;53.112;17.980;2023-04-28T03:15:41;26.20;;;13.20;;
79363;SDS011;68832;53.112;17.980;2023-04-28T03:18:08;22.20;;;12.50;;
79363;SDS011;68832;53.112;17.980;2023-04-28T03:20:35;28.50;;;12.90;;
79363;SDS011;68832;53.112;17.980;2023-04-28T03:23:02;29.50;;;12.90;;
79363;SDS011;68832;53.112;17.980;2023-04-28T03:25:29;29.40;;;13.10;;
79363;SDS011;68832;53.112;17.980;2023-04-28T03:27:56;24.80;;;13.20;;
79363;SDS011;68832;53.112;17.980;2023-04-28T03:30:23;28.50;;;13.40;;
79363;SDS011;68832;53.112;17.980;2023-04-28T03:32:50;23.40;;;13.80;;
79363;SDS011;68832;53.112;17.980;2023-04-28T03:35:17;26.10;;;14.70;;
79363;SDS011;68832;53.112;17.980;2023-04-28T03:37:44;31.30;;;15.20;;
79363;SDS011;68832;53.112;17.980;2023-04-28T03:40:11;36.30;;;16.80;;
79363;SDS011;68832;53.112;17.980;2023-04-28T03:42:56;29.60;;;15.30;;
79363;SDS011;68832;53.112;17.980;2023-04-28T03:45:29;32.90;;;13.60;;
79363;SDS011;68832;53.112;17.980;2023-04-28T03:47:56;26.30;;;14.70;;
79363;SDS011;68832;53.112;17.980;2023-04-28T03:50:23;26.50;;;12.50;;
79363;SDS011;68832;53.112;17.980;2023-04-28T03:52:50;24.70;;;14.40;;
79363;SDS011;68832;53.112;17.980;2023-04-28T03:55:17;26.80;;;13.10;;
79363;SDS011;68832;53.112;17.980;2023-04-28T03:57:44;19.60;;;11.60;;
79363;SDS011;68832;53.112;17.980;2023-04-28T04:00:11;23.40;;;13.20;;
79363;SDS011;68832;53.112;17.980;2023-04-28T04:02:42;28.10;;;13.00;;
79363;SDS011;68832;53.112;17.980;2023-04-28T04:05:09;25.70;;;12.70;;
79363;SDS011;68832;53.112;17.980;2023-04-28T04:07:36;22.10;;;11.60;;
79363;SDS011;68832;53.112;17.980;2023-04-28T04:10:03;26.10;;;12.30;;
79363;SDS011;68832;53.112;17.980;2023-04-28T04:12:32;24.70;;;11.90;;
79363;SDS011;68832;53.112;17.980;2023-04-28T04:14:59;32.70;;;13.20;;
79363;SDS011;68832;53.112;17.980;2023-04-28T04:17:26;24.40;;;11.70;;
79363;SDS011;68832;53.112;17.980;2023-04-28T04:19:53;24.30;;;12.80;;
79363;SDS011;68832;53.112;17.980;2023-04-28T04:22:19;24.30;;;11.90;;
79363;SDS011;68832;53.112;17.980;2023-04-28T04:24:47;35.10;;;16.40;;
79363;SDS011;68832;53.112;17.980;2023-04-28T04:27:14;48.10;;;22.40;;
79363;SDS011;68832;53.112;17.980;2023-04-28T04:29:41;43.00;;;23.70;;
79363;SDS011;68832;53.112;17.980;2023-04-28T04:32:11;46.30;;;22.50;;
79363;SDS011;68832;53.112;17.980;2023-04-28T04:34:38;49.40;;;27.10;;
79363;SDS011;68832;53.112;17.980;2023-04-28T04:37:05;63.50;;;30.90;;
79363;SDS011;68832;53.112;17.980;2023-04-28T04:39:33;37.20;;;20.00;;
79363;SDS011;68832;53.112;17.980;2023-04-28T04:42:00;38.60;;;19.90;;
79363;SDS011;68832;53.112;17.980;2023-04-28T04:44:48;39.80;;;20.10;;
79363;SDS011;68832;53.112;17.980;2023-04-28T04:47:24;37.80;;;19.30;;
79363;SDS011;68832;53.112;17.980;2023-04-28T04:49:51;37.60;;;19.90;;
79363;SDS011;68832;53.112;17.980;2023-04-28T04:52:18;30.30;;;18.50;;
79363;SDS011;68832;53.112;17.980;2023-04-28T04:54:45;33.30;;;18.70;;
79363;SDS011;68832;53.112;17.980;2023-04-28T04:57:12;28.40;;;16.80;;
79363;SDS011;68832;53.112;17.980;2023-04-28T05:00:02;34.70;;;18.40;;
79363;SDS011;68832;53.112;17.980;2023-04-28T05:02:31;32.80;;;18.10;;
79363;SDS011;68832;53.112;17.980;2023-04-28T05:04:58;33.10;;;16.80;;
79363;SDS011;68832;53.112;17.980;2023-04-28T05:07:24;28.70;;;14.70;;
79363;SDS011;68832;53.112;17.980;2023-04-28T05:09:52;24.30;;;14.40;;
79363;SDS011;68832;53.112;17.980;2023-04-28T05:12:19;25.80;;;14.20;;
79363;SDS011;68832;53.112;17.980;2023-04-28T05:14:46;30.00;;;14.10;;
79363;SDS011;68832;53.112;17.980;2023-04-28T05:17:13;25.60;;;13.50;;
79363;SDS011;68832;53.112;17.980;2023-04-28T05:19:41;29.10;;;15.50;;
79363;SDS011;68832;53.112;17.980;2023-04-28T05:22:08;26.50;;;15.50;;
79363;SDS011;68832;53.112;17.980;2023-04-28T05:24:36;23.60;;;12.50;;
79363;SDS011;68832;53.112;17.980;2023-04-28T05:27:03;31.60;;;14.50;;
79363;SDS011;68832;53.112;17.980;2023-04-28T05:29:30;25.00;;;12.50;;
79363;SDS011;68832;53.112;17.980;2023-04-28T05:31:56;23.30;;;13.20;;
79363;SDS011;68832;53.112;17.980;2023-04-28T05:34:23;24.50;;;13.00;;
79363;SDS011;68832;53.112;17.980;2023-04-28T05:36:51;25.60;;;14.90;;
79363;SDS011;68832;53.112;17.980;2023-04-28T05:39:19;31.10;;;16.40;;
79363;SDS011;68832;53.112;17.980;2023-04-28T05:41:45;23.70;;;14.00;;
79363;SDS011;68832;53.112;17.980;2023-04-28T05:44:12;26.80;;;15.30;;
79363;SDS011;68832;53.112;17.980;2023-04-28T05:46:39;29.30;;;14.90;;
79363;SDS011;68832;53.112;17.980;2023-04-28T05:49:06;21.40;;;11.90;;
79363;SDS011;68832;53.112;17.980;2023-04-28T05:51:36;20.10;;;12.80;;
79363;SDS011;68832;53.112;17.980;2023-04-28T05:54:04;19.70;;;11.20;;
79363;SDS011;68832;53.112;17.980;2023-04-28T05:56:33;18.50;;;12.50;;
79363;SDS011;68832;53.112;17.980;2023-04-28T05:59:01;23.10;;;12.20;;
79363;SDS011;68832;53.112;17.980;2023-04-28T06:01:30;21.10;;;11.00;;
79363;SDS011;68832;53.112;17.980;2023-04-28T06:03:57;19.50;;;10.60;;
79363;SDS011;68832;53.112;17.980;2023-04-28T06:06:25;22.50;;;13.50;;
79363;SDS011;68832;53.112;17.980;2023-04-28T06:08:53;24.20;;;14.40;;
79363;SDS011;68832;53.112;17.980;2023-04-28T06:11:20;19.70;;;10.80;;
79363;SDS011;68832;53.112;17.980;2023-04-28T06:13:49;19.80;;;9.80;;
79363;SDS011;68832;53.112;17.980;2023-04-28T06:16:18;12.90;;;8.00;;
79363;SDS011;68832;53.112;17.980;2023-04-28T06:18:44;19.20;;;10.60;;
79363;SDS011;68832;53.112;17.980;2023-04-28T06:21:11;18.00;;;10.30;;
79363;SDS011;68832;53.112;17.980;2023-04-28T06:23:38;17.70;;;10.50;;
79363;SDS011;68832;53.112;17.980;2023-04-28T06:26:06;13.10;;;8.20;;
79363;SDS011;68832;53.112;17.980;2023-04-28T06:28:33;19.40;;;9.50;;
79363;SDS011;68832;53.112;17.980;2023-04-28T06:31:00;30.20;;;11.30;;
79363;SDS011;68832;53.112;17.980;2023-04-28T06:33:27;22.30;;;10.80;;
79363;SDS011;68832;53.112;17.980;2023-04-28T06:35:54;21.00;;;10.50;;
79363;SDS011;68832;53.112;17.980;2023-04-28T06:38:21;15.80;;;8.00;;
79363;SDS011;68832;53.112;17.980;2023-04-28T06:40:48;14.60;;;8.20;;
79363;SDS011;68832;53.112;17.980;2023-04-28T06:43:15;17.90;;;8.00;;
79363;SDS011;68832;53.112;17.980;2023-04-28T06:45:51;20.10;;;9.60;;
79363;SDS011;68832;53.112;17.980;2023-04-28T06:48:18;19.80;;;8.50;;
79363;SDS011;68832;53.112;17.980;2023-04-28T06:50:44;19.30;;;6.40;;
79363;SDS011;68832;53.112;17.980;2023-04-28T06:53:11;7.20;;;4.20;;
79363;SDS011;68832;53.112;17.980;2023-04-28T06:55:38;26.50;;;17.70;;
79363;SDS011;68832;53.112;17.980;2023-04-28T06:58:05;20.50;;;10.20;;
79363;SDS011;68832;53.112;17.980;2023-04-28T07:00:33;11.70;;;4.20;;
79363;SDS011;68832;53.112;17.980;2023-04-28T07:03:00;11.80;;;4.30;;
79363;SDS011;68832;53.112;17.980;2023-04-28T07:05:27;8.30;;;3.90;;
79363;SDS011;68832;53.112;17.980;2023-04-28T07:07:54;10.50;;;4.20;;
79363;SDS011;68832;53.112;17.980;2023-04-28T07:10:21;9.30;;;4.30;;
79363;SDS011;68832;53.112;17.980;2023-04-28T07:12:48;11.30;;;4.40;;
79363;SDS011;68832;53.112;17.980;2023-04-28T07:17:43;11.70;;;3.30;;
79363;SDS011;68832;53.112;17.980;2023-04-28T07:20:09;10.30;;;2.40;;
79363;SDS011;68832;53.112;17.980;2023-04-28T07:22:37;6.30;;;2.50;;
79363;SDS011;68832;53.112;17.980;2023-04-28T07:25:04;7.90;;;3.00;;
79363;SDS011;68832;53.112;17.980;2023-04-28T07:27:31;8.00;;;2.60;;
79363;SDS011;68832;53.112;17.980;2023-04-28T07:29:58;3.80;;;1.30;;
79363;SDS011;68832;53.112;17.980;2023-04-28T07:32:25;12.80;;;11.10;;
79363;SDS011;68832;53.112;17.980;2023-04-28T07:34:52;14.80;;;9.80;;
79363;SDS011;68832;53.112;17.980;2023-04-28T07:37:19;6.10;;;1.40;;
79363;SDS011;68832;53.112;17.980;2023-04-28T07:39:46;2.90;;;1.40;;
79363;SDS011;68832;53.112;17.980;2023-04-28T07:42:12;1.90;;;0.80;;
79363;SDS011;68832;53.112;17.980;2023-04-28T07:44:39;4.20;;;1.20;;
79363;SDS011;68832;53.112;17.980;2023-04-28T07:47:07;2.90;;;1.20;;
79363;SDS011;68832;53.112;17.980;2023-04-28T07:49:34;4.00;;;1.30;;
79363;SDS011;68832;53.112;17.980;2023-04-28T07:52:01;8.20;;;1.40;;
79363;SDS011;68832;53.112;17.980;2023-04-28T07:54:28;4.60;;;1.40;;
79363;SDS011;68832;53.112;17.980;2023-04-28T07:56:55;3.00;;;0.80;;
79363;SDS011;68832;53.112;17.980;2023-04-28T07:59:23;3.30;;;1.20;;
79363;SDS011;68832;53.112;17.980;2023-04-28T08:01:50;4.60;;;1.10;;
79363;SDS011;68832;53.112;17.980;2023-04-28T08:04:17;3.20;;;0.80;;
79363;SDS011;68832;53.112;17.980;2023-04-28T08:06:43;1.90;;;0.60;;
79363;SDS011;68832;53.112;17.980;2023-04-28T08:09:11;1.50;;;1.00;;
79363;SDS011;68832;53.112;17.980;2023-04-28T08:11:37;4.50;;;0.80;;
79363;SDS011;68832;53.112;17.980;2023-04-28T08:14:04;3.30;;;0.40;;
79363;SDS011;68832;53.112;17.980;2023-04-28T08:16:31;5.60;;;1.40;;
79363;SDS011;68832;53.112;17.980;2023-04-28T08:19:00;3.10;;;1.50;;
79363;SDS011;68832;53.112;17.980;2023-04-28T08:21:27;2.80;;;1.00;;
79363;SDS011;68832;53.112;17.980;2023-04-28T08:23:54;4.30;;;1.20;;
79363;SDS011;68832;53.112;17.980;2023-04-28T08:26:21;2.90;;;1.30;;
79363;SDS011;68832;53.112;17.980;2023-04-28T08:28:50;3.20;;;0.80;;
79363;SDS011;68832;53.112;17.980;2023-04-28T08:31:17;1.70;;;0.70;;
79363;SDS011;68832;53.112;17.980;2023-04-28T08:33:43;3.60;;;1.60;;
79363;SDS011;68832;53.112;17.980;2023-04-28T08:36:13;2.10;;;1.20;;
79363;SDS011;68832;53.112;17.980;2023-04-28T08:38:40;2.10;;;0.70;;
79363;SDS011;68832;53.112;17.980;2023-04-28T08:41:07;4.00;;;1.00;;
79363;SDS011;68832;53.112;17.980;2023-04-28T08:43:34;4.80;;;1.60;;
79363;SDS011;68832;53.112;17.980;2023-04-28T08:46:05;4.90;;;1.50;;
79363;SDS011;68832;53.112;17.980;2023-04-28T08:48:37;5.30;;;1.40;;
79363;SDS011;68832;53.112;17.980;2023-04-28T08:51:06;3.00;;;1.70;;
79363;SDS011;68832;53.112;17.980;2023-04-28T08:53:35;2.90;;;1.10;;
79363;SDS011;68832;53.112;17.980;2023-04-28T08:56:04;2.40;;;1.40;;
79363;SDS011;68832;53.112;17.980;2023-04-28T08:58:34;3.50;;;1.50;;
79363;SDS011;68832;53.112;17.980;2023-04-28T09:01:02;2.60;;;0.80;;
79363;SDS011;68832;53.112;17.980;2023-04-28T09:03:30;4.30;;;1.30;;
79363;SDS011;68832;53.112;17.980;2023-04-28T09:06:00;4.50;;;1.80;;
79363;SDS011;68832;53.112;17.980;2023-04-28T09:08:27;5.70;;;1.30;;
79363;SDS011;68832;53.112;17.980;2023-04-28T09:11:10;4.40;;;1.50;;
79363;SDS011;68832;53.112;17.980;2023-04-28T09:13:40;5.40;;;1.40;;
79363;SDS011;68832;53.112;17.980;2023-04-28T09:16:07;3.90;;;2.10;;
79363;SDS011;68832;53.112;17.980;2023-04-28T09:18:34;2.30;;;0.60;;
79363;SDS011;68832;53.112;17.980;2023-04-28T09:21:05;6.50;;;3.00;;
79363;SDS011;68832;53.112;17.980;2023-04-28T09:23:33;4.30;;;1.20;;
79363;SDS011;68832;53.112;17.980;2023-04-28T09:28:30;4.00;;;1.40;;
79363;SDS011;68832;53.112;17.980;2023-04-28T09:30:57;1.80;;;1.20;;
79363;SDS011;68832;53.112;17.980;2023-04-28T09:33:24;3.40;;;1.20;;
79363;SDS011;68832;53.112;17.980;2023-04-28T09:35:51;2.70;;;1.00;;
79363;SDS011;68832;53.112;17.980;2023-04-28T09:38:19;4.80;;;3.70;;
79363;SDS011;68832;53.112;17.980;2023-04-28T09:43:25;1.40;;;0.50;;
79363;SDS011;68832;53.112;17.980;2023-04-28T09:45:54;2.20;;;0.50;;
79363;SDS011;68832;53.112;17.980;2023-04-28T09:48:33;3.20;;;0.60;;
79363;SDS011;68832;53.112;17.980;2023-04-28T09:51:02;4.40;;;1.10;;
79363;SDS011;68832;53.112;17.980;2023-04-28T09:53:31;4.10;;;1.10;;
79363;SDS011;68832;53.112;17.980;2023-04-28T09:55:59;3.10;;;1.00;;
79363;SDS011;68832;53.112;17.980;2023-04-28T09:58:29;6.90;;;1.00;;
79363;SDS011;68832;53.112;17.980;2023-04-28T10:00:58;2.00;;;0.80;;
79363;SDS011;68832;53.112;17.980;2023-04-28T10:03:26;2.90;;;0.80;;
79363;SDS011;68832;53.112;17.980;2023-04-28T10:05:55;6.30;;;1.20;;
79363;SDS011;68832;53.112;17.980;2023-04-28T10:08:23;3.10;;;1.40;;
79363;SDS011;68832;53.112;17.980;2023-04-28T10:10:52;2.80;;;1.70;;
79363;SDS011;68832;53.112;17.980;2023-04-28T10:13:20;2.90;;;1.10;;
79363;SDS011;68832;53.112;17.980;2023-04-28T10:18:24;3.80;;;0.90;;
79363;SDS011;68832;53.112;17.980;2023-04-28T10:20:58;3.00;;;1.10;;
79363;SDS011;68832;53.112;17.980;2023-04-28T10:26:13;2.10;;;1.20;;
79363;SDS011;68832;53.112;17.980;2023-04-28T10:28:45;2.30;;;1.00;;
79363;SDS011;68832;53.112;17.980;2023-04-28T10:31:17;3.30;;;0.70;;
79363;SDS011;68832;53.112;17.980;2023-04-28T10:33:48;2.00;;;0.70;;
79363;SDS011;68832;53.112;17.980;2023-04-28T10:39:13;2.00;;;0.50;;
79363;SDS011;68832;53.112;17.980;2023-04-28T10:41:40;4.80;;;1.00;;
79363;SDS011;68832;53.112;17.980;2023-04-28T10:47:02;1.70;;;0.60;;
79363;SDS011;68832;53.112;17.980;2023-04-28T11:00:42;4.20;;;0.70;;
79363;SDS011;68832;53.112;17.980;2023-04-28T11:06:20;2.30;;;1.10;;
79363;SDS011;68832;53.112;17.980;2023-04-28T11:08:51;4.30;;;1.10;;
79363;SDS011;68832;53.112;17.980;2023-04-28T11:11:21;4.90;;;0.70;;
79363;SDS011;68832;53.112;17.980;2023-04-28T11:13:54;3.90;;;1.00;;
79363;SDS011;68832;53.112;17.980;2023-04-28T11:19:37;3.30;;;1.30;;
79363;SDS011;68832;53.112;17.980;2023-04-28T11:24:57;4.10;;;1.20;;
79363;SDS011;68832;53.112;17.980;2023-04-28T11:27:25;4.10;;;1.30;;
79363;SDS011;68832;53.112;17.980;2023-04-28T11:32:32;4.70;;;2.60;;
79363;SDS011;68832;53.112;17.980;2023-04-28T11:35:00;2.70;;;1.10;;
79363;SDS011;68832;53.112;17.980;2023-04-28T11:37:27;5.90;;;2.50;;
79363;SDS011;68832;53.112;17.980;2023-04-28T11:39:54;3.70;;;1.10;;
79363;SDS011;68832;53.112;17.980;2023-04-28T11:42:21;2.50;;;0.90;;
79363;SDS011;68832;53.112;17.980;2023-04-28T11:44:48;3.00;;;0.70;;
79363;SDS011;68832;53.112;17.980;2023-04-28T11:47:27;4.90;;;1.30;;
79363;SDS011;68832;53.112;17.980;2023-04-28T11:49:57;5.00;;;1.90;;
79363;SDS011;68832;53.112;17.980;2023-04-28T11:52:24;4.20;;;1.00;;
79363;SDS011;68832;53.112;17.980;2023-04-28T11:54:56;6.30;;;0.90;;
79363;SDS011;68832;53.112;17.980;2023-04-28T11:57:25;7.30;;;2.50;;
79363;SDS011;68832;53.112;17.980;2023-04-28T11:59:53;2.70;;;1.10;;
79363;SDS011;68832;53.112;17.980;2023-04-28T12:02:26;2.80;;;0.90;;
79363;SDS011;68832;53.112;17.980;2023-04-28T12:04:54;2.90;;;1.70;;
79363;SDS011;68832;53.112;17.980;2023-04-28T12:07:20;4.40;;;1.10;;
79363;SDS011;68832;53.112;17.980;2023-04-28T12:12:41;3.30;;;1.10;;
79363;SDS011;68832;53.112;17.980;2023-04-28T12:15:08;4.80;;;2.20;;
79363;SDS011;68832;53.112;17.980;2023-04-28T12:17:37;4.90;;;0.90;;
79363;SDS011;68832;53.112;17.980;2023-04-28T12:20:09;2.90;;;0.60;;
79363;SDS011;68832;53.112;17.980;2023-04-28T12:22:47;2.60;;;0.90;;
79363;SDS011;68832;53.112;17.980;2023-04-28T12:25:16;3.50;;;1.50;;
79363;SDS011;68832;53.112;17.980;2023-04-28T12:30:34;2.40;;;0.90;;
79363;SDS011;68832;53.112;17.980;2023-04-28T12:33:04;8.90;;;1.40;;
79363;SDS011;68832;53.112;17.980;2023-04-28T12:35:30;10.60;;;2.00;;
79363;SDS011;68832;53.112;17.980;2023-04-28T12:37:58;4.10;;;1.50;;
79363;SDS011;68832;53.112;17.980;2023-04-28T12:40:24;3.90;;;1.60;;
79363;SDS011;68832;53.112;17.980;2023-04-28T12:42:51;6.70;;;1.10;;
79363;SDS011;68832;53.112;17.980;2023-04-28T12:45:19;6.40;;;3.20;;
79363;SDS011;68832;53.112;17.980;2023-04-28T12:47:45;4.30;;;1.30;;
79363;SDS011;68832;53.112;17.980;2023-04-28T12:50:13;4.30;;;1.80;;
79363;SDS011;68832;53.112;17.980;2023-04-28T12:52:40;4.90;;;2.00;;
79363;SDS011;68832;53.112;17.980;2023-04-28T12:55:07;9.90;;;2.70;;
79363;SDS011;68832;53.112;17.980;2023-04-28T12:57:34;5.70;;;2.70;;
79363;SDS011;68832;53.112;17.980;2023-04-28T13:00:05;13.20;;;7.20;;
79363;SDS011;68832;53.112;17.980;2023-04-28T13:04:59;3.90;;;2.40;;
79363;SDS011;68832;53.112;17.980;2023-04-28T13:07:27;8.00;;;3.70;;
79363;SDS011;68832;53.112;17.980;2023-04-28T13:09:54;11.30;;;3.30;;
79363;SDS011;68832;53.112;17.980;2023-04-28T13:12:21;5.40;;;1.90;;
79363;SDS011;68832;53.112;17.980;2023-04-28T13:14:49;9.30;;;4.50;;
79363;SDS011;68832;53.112;17.980;2023-04-28T13:17:16;6.60;;;3.40;;
79363;SDS011;68832;53.112;17.980;2023-04-28T13:19:43;7.80;;;2.90;;
79363;SDS011;68832;53.112;17.980;2023-04-28T13:22:09;5.90;;;2.80;;
79363;SDS011;68832;53.112;17.980;2023-04-28T13:24:36;7.80;;;3.90;;
79363;SDS011;68832;53.112;17.980;2023-04-28T13:27:03;6.30;;;3.40;;
79363;SDS011;68832;53.112;17.980;2023-04-28T13:29:35;9.20;;;3.40;;
79363;SDS011;68832;53.112;17.980;2023-04-28T13:32:02;7.40;;;3.80;;
79363;SDS011;68832;53.112;17.980;2023-04-28T13:36:57;5.30;;;2.70;;
79363;SDS011;68832;53.112;17.980;2023-04-28T13:39:24;6.60;;;3.60;;
79363;SDS011;68832;53.112;17.980;2023-04-28T13:41:51;6.20;;;2.80;;
79363;SDS011;68832;53.112;17.980;2023-04-28T13:44:18;5.10;;;2.70;;
79363;SDS011;68832;53.112;17.980;2023-04-28T13:46:44;7.50;;;3.50;;
79363;SDS011;68832;53.112;17.980;2023-04-28T13:49:11;6.40;;;3.40;;
79363;SDS011;68832;53.112;17.980;2023-04-28T13:51:38;10.60;;;4.60;;
79363;SDS011;68832;53.112;17.980;2023-04-28T13:54:05;6.60;;;3.40;;
79363;SDS011;68832;53.112;17.980;2023-04-28T13:56:34;8.80;;;4.80;;
79363;SDS011;68832;53.112;17.980;2023-04-28T13:59:02;9.50;;;4.50;;
79363;SDS011;68832;53.112;17.980;2023-04-28T14:01:28;7.30;;;4.40;;
79363;SDS011;68832;53.112;17.980;2023-04-28T14:03:55;6.50;;;4.10;;
79363;SDS011;68832;53.112;17.980;2023-04-28T14:06:22;6.60;;;3.50;;
79363;SDS011;68832;53.112;17.980;2023-04-28T14:08:49;11.10;;;3.90;;
79363;SDS011;68832;53.112;17.980;2023-04-28T14:11:16;8.60;;;4.00;;
79363;SDS011;68832;53.112;17.980;2023-04-28T14:13:42;6.00;;;4.10;;
79363;SDS011;68832;53.112;17.980;2023-04-28T14:16:10;10.90;;;4.60;;
79363;SDS011;68832;53.112;17.980;2023-04-28T14:18:38;8.30;;;4.00;;
79363;SDS011;68832;53.112;17.980;2023-04-28T14:21:05;8.10;;;4.00;;
79363;SDS011;68832;53.112;17.980;2023-04-28T14:23:33;6.20;;;4.00;;
79363;SDS011;68832;53.112;17.980;2023-04-28T14:26:00;6.60;;;3.70;;
79363;SDS011;68832;53.112;17.980;2023-04-28T14:28:28;8.10;;;3.80;;
79363;SDS011;68832;53.112;17.980;2023-04-28T14:30:54;6.50;;;3.80;;
79363;SDS011;68832;53.112;17.980;2023-04-28T14:33:21;6.40;;;5.40;;
79363;SDS011;68832;53.112;17.980;2023-04-28T14:35:48;12.30;;;5.00;;
79363;SDS011;68832;53.112;17.980;2023-04-28T14:38:15;8.90;;;5.00;;
79363;SDS011;68832;53.112;17.980;2023-04-28T14:40:42;9.40;;;5.00;;
79363;SDS011;68832;53.112;17.980;2023-04-28T14:43:08;9.50;;;4.90;;
79363;SDS011;68832;53.112;17.980;2023-04-28T14:45:35;12.40;;;5.50;;
79363;SDS011;68832;53.112;17.980;2023-04-28T14:48:03;7.10;;;3.70;;
79363;SDS011;68832;53.112;17.980;2023-04-28T14:50:32;8.50;;;4.60;;
79363;SDS011;68832;53.112;17.980;2023-04-28T14:52:59;11.20;;;5.70;;
79363;SDS011;68832;53.112;17.980;2023-04-28T14:55:30;9.10;;;5.70;;
79363;SDS011;68832;53.112;17.980;2023-04-28T14:57:58;11.30;;;4.30;;
79363;SDS011;68832;53.112;17.980;2023-04-28T15:00:25;9.80;;;5.60;;
79363;SDS011;68832;53.112;17.980;2023-04-28T15:02:52;10.30;;;5.20;;
79363;SDS011;68832;53.112;17.980;2023-04-28T15:05:18;9.00;;;5.80;;
79363;SDS011;68832;53.112;17.980;2023-04-28T15:07:45;8.40;;;4.40;;
79363;SDS011;68832;53.112;17.980;2023-04-28T15:10:12;8.20;;;4.90;;
79363;SDS011;68832;53.112;17.980;2023-04-28T15:12:39;6.00;;;4.00;;
79363;SDS011;68832;53.112;17.980;2023-04-28T15:15:06;8.90;;;5.10;;
79363;SDS011;68832;53.112;17.980;2023-04-28T15:17:34;4.90;;;3.10;;
79363;SDS011;68832;53.112;17.980;2023-04-28T15:20:00;7.70;;;4.80;;